createdAt,value
2018-09-21T00:00:00.561Z,66.55
2018-09-21T00:02:29.033Z,66.62
2018-09-21T00:04:57.673Z,66.53
2018-09-21T00:07:27.088Z,66.46
2018-09-21T00:09:55.866Z,66.54
2018-09-21T00:12:24.795Z,66.64
2018-09-21T00:14:53.309Z,66.32
2018-09-21T00:17:22.113Z,66.38
2018-09-21T00:19:50.793Z,66.41
2018-09-21T00:22:19.261Z,66.57
2018-09-21T00:24:47.714Z,66.67
2018-09-21T00:27:16.447Z,66.50
2018-09-21T00:29:45.132Z,66.38
2018-09-21T00:32:14.594Z,66.70
2018-09-21T00:34:43.507Z,66.17
2018-09-21T00:37:12.650Z,66.53
2018-09-21T00:39:41.137Z,66.38
2018-09-21T00:42:10.098Z,66.26
2018-09-21T00:44:38.569Z,65.93
2018-09-21T00:47:07.078Z,65.77
2018-09-21T00:49:35.858Z,65.63
2018-09-21T00:52:04.389Z,65.76
2018-09-21T00:54:32.856Z,65.76
2018-09-21T00:57:01.889Z,65.46
2018-09-21T00:59:30.379Z,65.69
2018-09-21T01:01:59.049Z,65.72
2018-09-21T01:04:32.256Z,65.48
2018-09-21T01:07:00.782Z,65.74
2018-09-21T01:09:29.989Z,65.51
2018-09-21T01:11:59.144Z,65.40
2018-09-21T01:14:27.610Z,65.37
2018-09-21T01:16:56.318Z,65.49
2018-09-21T01:19:24.806Z,65.23
2018-09-21T01:21:53.301Z,65.26
2018-09-21T01:24:21.873Z,65.29
2018-09-21T01:26:50.503Z,65.24
2018-09-21T01:29:18.988Z,65.15
2018-09-21T01:31:48.382Z,64.88
2018-09-21T01:34:17.011Z,64.97
2018-09-21T01:36:45.570Z,64.87
2018-09-21T01:39:14.397Z,65.13
2018-09-21T01:41:42.960Z,65.02
2018-09-21T01:44:11.401Z,64.69
2018-09-21T01:46:40.168Z,64.76
2018-09-21T01:49:09.209Z,64.86
2018-09-21T01:51:37.675Z,64.77
2018-09-21T01:54:06.568Z,64.60
2018-09-21T01:56:35.066Z,65.20
2018-09-21T01:59:03.580Z,65.38
2018-09-21T02:01:32.281Z,65.76
2018-09-21T02:04:00.837Z,66.04
2018-09-21T02:06:29.347Z,66.16
2018-09-21T02:08:58.013Z,66.54
2018-09-21T02:11:26.581Z,66.61
2018-09-21T02:13:55.207Z,66.81
2018-09-21T02:16:24.187Z,67.04
2018-09-21T02:18:52.677Z,67.29
2018-09-21T02:21:21.208Z,67.64
2018-09-21T02:23:50.158Z,67.82
2018-09-21T02:26:18.717Z,67.98
2018-09-21T02:28:47.606Z,68.41
2018-09-21T02:31:16.502Z,68.82
2018-09-21T02:33:44.969Z,69.33
2018-09-21T02:36:13.462Z,69.85
2018-09-21T02:38:42.357Z,69.85
2018-09-21T02:41:10.848Z,70.46
2018-09-21T02:43:39.325Z,70.62
2018-09-21T02:46:07.921Z,70.91
2018-09-21T02:48:36.624Z,71.25
2018-09-21T02:51:05.169Z,71.54
2018-09-21T02:53:34.174Z,71.73
2018-09-21T02:56:02.670Z,72.05
2018-09-21T02:58:31.113Z,72.28
2018-09-21T03:00:59.878Z,72.52
2018-09-21T03:03:28.317Z,72.71
2018-09-21T03:05:56.813Z,73.16
2018-09-21T03:08:25.457Z,73.57
2018-09-21T03:10:54.050Z,73.30
2018-09-21T03:13:22.565Z,74.20
2018-09-21T03:15:51.600Z,74.45
2018-09-21T03:18:20.077Z,74.74
2018-09-21T03:20:48.560Z,74.82
2018-09-21T03:23:17.574Z,75.17
2018-09-21T03:25:46.060Z,75.36
2018-09-21T03:28:14.529Z,75.68
2018-09-21T03:30:43.840Z,76.12
2018-09-21T03:33:12.325Z,76.07
2018-09-21T03:35:42.121Z,76.56
2018-09-21T03:38:10.824Z,76.73
2018-09-21T03:40:39.708Z,77.15
2018-09-21T03:43:09.024Z,77.35
2018-09-21T03:45:37.995Z,77.79
2018-09-21T03:48:06.994Z,78.03
2018-09-21T03:50:36.118Z,78.25
2018-09-21T03:53:04.662Z,78.53
2018-09-21T03:55:33.200Z,78.89
2018-09-21T03:58:01.709Z,79.17
2018-09-21T04:00:30.420Z,79.41
2018-09-21T04:02:58.900Z,79.57
2018-09-21T04:05:27.359Z,79.42
2018-09-21T04:07:56.550Z,79.93
2018-09-21T04:10:25.130Z,80.79
2018-09-21T04:12:53.614Z,80.25
2018-09-21T04:15:22.151Z,80.59
2018-09-21T04:17:50.911Z,80.94
2018-09-21T04:20:19.382Z,80.97
2018-09-21T04:22:58.167Z,80.95
2018-09-21T04:25:27.312Z,80.94
2018-09-21T04:27:56.175Z,80.91
2018-09-21T04:30:25.218Z,80.94
2018-09-21T04:32:53.674Z,80.95
2018-09-21T04:35:22.454Z,81.06
2018-09-21T04:37:51.274Z,81.01
2018-09-21T04:40:19.803Z,81.23
2018-09-21T04:42:48.398Z,81.24
2018-09-21T04:45:16.885Z,81.50
2018-09-21T04:47:45.313Z,81.46
2018-09-21T04:50:13.937Z,81.52
2018-09-21T04:52:42.594Z,81.56
2018-09-21T04:55:11.161Z,81.59
2018-09-21T04:57:40.103Z,81.68
2018-09-21T05:00:09.454Z,81.83
2018-09-21T05:02:38.002Z,81.87
2018-09-21T05:05:06.998Z,81.75
2018-09-21T05:07:35.506Z,81.91
2018-09-21T05:10:04.045Z,81.96
2018-09-21T05:12:32.569Z,82.06
2018-09-21T05:15:01.040Z,82.13
2018-09-21T05:17:29.509Z,82.22
2018-09-21T05:19:58.218Z,82.23
2018-09-21T05:22:26.789Z,82.33
2018-09-21T05:24:55.238Z,82.36
2018-09-21T05:27:24.262Z,82.39
2018-09-21T05:29:52.814Z,82.53
2018-09-21T05:32:21.411Z,82.51
2018-09-21T05:34:50.164Z,82.66
2018-09-21T05:37:18.566Z,82.81
2018-09-21T05:39:46.997Z,82.78
2018-09-21T05:42:15.831Z,82.77
2018-09-21T05:44:44.454Z,82.92
2018-09-21T05:47:13.032Z,82.98
2018-09-21T05:49:41.505Z,83.12
2018-09-21T05:52:10.889Z,83.16
2018-09-21T05:54:39.346Z,83.16
2018-09-21T05:57:08.247Z,83.39
2018-09-21T05:59:36.790Z,83.30
2018-09-21T06:02:05.314Z,83.20
2018-09-21T06:04:34.302Z,83.26
2018-09-21T06:07:02.899Z,83.27
2018-09-21T06:09:31.378Z,83.33
2018-09-21T06:11:59.949Z,83.23
2018-09-21T06:14:28.427Z,83.20
2018-09-21T06:16:56.941Z,83.26
2018-09-21T06:19:26.378Z,83.32
2018-09-21T06:21:55.322Z,83.32
2018-09-21T06:24:24.639Z,83.36
2018-09-21T06:26:54.178Z,83.47
2018-09-21T06:29:22.740Z,83.33
2018-09-21T06:31:51.631Z,83.25
2018-09-21T06:34:20.570Z,83.22
2018-09-21T06:36:49.339Z,82.83
2018-09-21T06:39:17.838Z,83.03
2018-09-21T06:41:46.404Z,82.81
2018-09-21T06:44:14.919Z,82.86
2018-09-21T06:46:43.426Z,82.66
2018-09-21T06:49:12.128Z,82.90
2018-09-21T06:51:40.818Z,82.82
2018-09-21T06:54:09.322Z,82.27
2018-09-21T06:56:38.174Z,82.39
2018-09-21T06:59:06.709Z,82.10
2018-09-21T07:01:35.261Z,82.05
2018-09-21T07:04:03.895Z,81.53
2018-09-21T07:06:32.566Z,81.26
2018-09-21T07:09:01.267Z,81.50
2018-09-21T07:11:30.040Z,80.96
2018-09-21T07:13:58.914Z,81.24
2018-09-21T07:16:27.424Z,81.13
2018-09-21T07:18:56.402Z,80.64
2018-09-21T07:21:24.903Z,80.51
2018-09-21T07:23:53.687Z,80.36
2018-09-21T07:26:22.687Z,80.17
2018-09-21T07:28:51.365Z,80.12
2018-09-21T07:31:19.939Z,80.09
2018-09-21T07:33:51.987Z,79.60
2018-09-21T07:36:21.109Z,79.34
2018-09-21T07:38:50.086Z,79.26
2018-09-21T07:41:18.666Z,79.82
2018-09-21T07:43:47.773Z,79.08
2018-09-21T07:46:16.550Z,78.83
2018-09-21T07:48:45.083Z,78.68
2018-09-21T07:51:13.631Z,78.33
2018-09-21T07:53:42.197Z,77.56
2018-09-21T07:56:10.715Z,77.50
2018-09-21T07:58:39.178Z,77.90
2018-09-21T08:01:07.935Z,77.03
2018-09-21T08:03:36.388Z,77.23
2018-09-21T08:06:04.937Z,77.74
2018-09-21T08:08:33.793Z,77.59
2018-09-21T08:11:02.260Z,76.98
2018-09-21T08:13:30.740Z,76.91
2018-09-21T08:15:59.805Z,76.77
2018-09-21T08:18:28.283Z,77.21
2018-09-21T08:20:57.852Z,76.96
2018-09-21T08:23:26.822Z,76.35
2018-09-21T08:25:55.755Z,76.33
2018-09-21T08:28:24.295Z,76.13
2018-09-21T08:30:53.675Z,75.96
2018-09-21T08:33:22.935Z,75.95
2018-09-21T08:35:51.489Z,76.10
2018-09-21T08:38:21.125Z,75.79
2018-09-21T08:40:49.649Z,75.43
2018-09-21T08:43:18.209Z,75.54
2018-09-21T08:45:47.147Z,74.77
2018-09-21T08:48:15.845Z,75.04
2018-09-21T08:50:44.334Z,74.67
2018-09-21T08:53:13.105Z,74.15
2018-09-21T08:55:47.882Z,74.42
2018-09-21T08:58:16.713Z,74.30
2018-09-21T09:00:45.157Z,73.81
2018-09-21T09:03:13.755Z,73.94
2018-09-21T09:05:42.745Z,73.56
2018-09-21T09:08:12.509Z,73.54
2018-09-21T09:10:41.183Z,73.44
2018-09-21T09:13:09.957Z,73.32
2018-09-21T09:15:38.501Z,72.93
2018-09-21T09:18:06.765Z,72.88
2018-09-21T09:20:35.391Z,72.79
2018-09-21T09:23:03.918Z,72.30
2018-09-21T09:25:32.699Z,71.99
2018-09-21T09:28:01.554Z,72.06
2018-09-21T09:30:29.999Z,71.71
2018-09-21T09:32:59.400Z,71.72
2018-09-21T09:35:28.217Z,71.87
2018-09-21T09:37:57.778Z,71.20
2018-09-21T09:40:27.262Z,71.63
2018-09-21T09:42:56.981Z,71.45
2018-09-21T09:45:25.950Z,71.68
2018-09-21T09:47:54.481Z,71.10
2018-09-21T09:50:23.403Z,71.46
2018-09-21T09:52:52.012Z,71.08
2018-09-21T09:55:20.479Z,71.11
2018-09-21T09:57:49.069Z,71.26
2018-09-21T10:00:21.698Z,70.74
2018-09-21T10:02:50.421Z,71.30
2018-09-21T10:05:19.238Z,71.00
2018-09-21T10:07:47.769Z,70.42
2018-09-21T10:10:16.832Z,69.99
2018-09-21T10:12:45.362Z,70.23
2018-09-21T10:15:13.864Z,69.83
2018-09-21T10:17:42.533Z,70.09
2018-09-21T10:20:11.073Z,70.10
2018-09-21T10:22:39.777Z,70.24
2018-09-21T10:25:08.712Z,70.25
2018-09-21T10:27:37.609Z,70.05
2018-09-21T10:30:06.086Z,70.08
2018-09-21T10:32:35.059Z,70.14
2018-09-21T10:35:03.835Z,69.89
2018-09-21T10:37:32.424Z,70.03
2018-09-21T10:40:01.183Z,70.18
2018-09-21T10:42:29.753Z,70.04
2018-09-21T10:44:58.265Z,69.56
2018-09-21T10:47:28.781Z,69.51
2018-09-21T10:49:57.299Z,69.64
2018-09-21T10:52:26.163Z,69.86
2018-09-21T10:54:55.603Z,69.75
2018-09-21T10:57:24.099Z,70.40
2018-09-21T10:59:52.593Z,70.30
2018-09-21T11:02:21.438Z,70.13
2018-09-21T11:04:49.966Z,70.13
2018-09-21T11:07:18.504Z,69.90
2018-09-21T11:09:47.074Z,69.83
2018-09-21T11:12:15.645Z,70.30
2018-09-21T11:14:44.161Z,69.76
2018-09-21T11:17:12.843Z,69.88
2018-09-21T11:19:41.302Z,69.83
2018-09-21T11:22:09.789Z,69.82
2018-09-21T11:24:38.885Z,69.45
2018-09-21T11:27:07.355Z,68.89
2018-09-21T11:29:36.005Z,68.76
2018-09-21T11:32:05.048Z,69.16
2018-09-21T11:34:33.525Z,68.87
2018-09-21T11:37:02.574Z,68.66
2018-09-21T11:39:31.339Z,68.46
2018-09-21T11:41:59.778Z,68.13
2018-09-21T11:44:29.497Z,67.93
2018-09-21T11:46:58.367Z,67.15
2018-09-21T11:49:26.771Z,67.02
2018-09-21T11:51:55.257Z,66.47
2018-09-21T11:54:24.709Z,65.58
2018-09-21T11:56:53.179Z,65.45
2018-09-21T11:59:21.724Z,65.20
2018-09-21T12:01:50.473Z,65.04
2018-09-21T12:04:19.480Z,64.86
2018-09-21T12:06:48.001Z,64.10
2018-09-21T12:09:16.758Z,63.94
2018-09-21T12:11:45.233Z,64.10
2018-09-21T12:14:13.736Z,63.59
2018-09-21T12:16:42.530Z,63.38
2018-09-21T12:19:11.208Z,62.74
2018-09-21T12:21:39.670Z,62.44
2018-09-21T12:24:08.592Z,62.70
2018-09-21T12:26:37.089Z,62.04
2018-09-21T12:29:05.588Z,62.01
2018-09-21T12:31:34.315Z,61.89
2018-09-21T12:34:03.163Z,61.27
2018-09-21T12:36:31.933Z,61.85
2018-09-21T12:39:00.933Z,61.34
2018-09-21T12:41:29.464Z,61.79
2018-09-21T12:43:57.949Z,61.69
2018-09-21T12:46:28.054Z,61.41
2018-09-21T12:49:05.585Z,61.71
2018-09-21T12:51:34.850Z,61.40
2018-09-21T12:54:03.301Z,60.82
2018-09-21T12:56:32.075Z,60.72
2018-09-21T12:59:00.582Z,61.01
2018-09-21T13:01:29.054Z,59.68
2018-09-21T13:03:57.780Z,59.61
2018-09-21T13:06:27.399Z,58.55
2018-09-21T13:08:56.439Z,58.47
2018-09-21T13:11:31.521Z,57.82
2018-09-21T13:13:59.987Z,57.41
2018-09-21T13:16:28.446Z,56.68
2018-09-21T13:18:57.021Z,55.72
2018-09-21T13:21:25.554Z,54.53
2018-09-21T13:23:54.102Z,54.57
2018-09-21T13:26:22.870Z,54.35
2018-09-21T13:28:51.342Z,54.25
2018-09-21T13:31:19.985Z,55.24
2018-09-21T13:33:49.093Z,55.55
2018-09-21T13:36:17.551Z,55.95
2018-09-21T13:38:45.991Z,56.36
2018-09-21T13:41:14.974Z,57.37
2018-09-21T13:43:43.496Z,57.85
2018-09-21T13:46:11.998Z,58.45
2018-09-21T13:48:41.133Z,58.17
2018-09-21T13:51:09.613Z,59.19
2018-09-21T13:53:38.099Z,59.52
2018-09-21T13:56:07.555Z,59.39
2018-09-21T13:58:36.069Z,59.95
2018-09-21T14:01:04.521Z,60.52
2018-09-21T14:03:33.321Z,61.02
2018-09-21T14:06:05.313Z,61.16
2018-09-21T14:08:34.602Z,62.02
2018-09-21T14:11:03.265Z,62.21
2018-09-21T14:13:31.736Z,62.06
2018-09-21T14:16:00.310Z,62.69
2018-09-21T14:18:28.939Z,62.22
2018-09-21T14:20:57.446Z,62.78
2018-09-21T14:23:25.957Z,62.78
2018-09-21T14:25:54.843Z,63.12
2018-09-21T14:28:23.337Z,63.48
2018-09-21T14:30:51.918Z,63.59
2018-09-21T14:33:20.893Z,63.64
2018-09-21T14:35:49.472Z,63.51
2018-09-21T14:38:17.931Z,63.26
2018-09-21T14:40:46.569Z,63.37
2018-09-21T14:43:15.482Z,63.39
2018-09-21T14:45:43.977Z,63.79
2018-09-21T14:48:12.613Z,63.78
2018-09-21T14:50:41.365Z,63.84
2018-09-21T14:53:09.898Z,63.39
2018-09-21T14:55:38.431Z,63.32
2018-09-21T14:58:07.041Z,63.57
2018-09-21T15:00:35.661Z,63.54
2018-09-21T15:03:04.257Z,63.54
2018-09-21T15:05:32.753Z,62.97
2018-09-21T15:08:01.237Z,63.35
2018-09-21T15:10:30.158Z,63.11
2018-09-21T15:12:58.622Z,62.77
2018-09-21T15:15:27.165Z,63.07
2018-09-21T15:17:56.709Z,62.73
2018-09-21T15:20:25.298Z,62.88
2018-09-21T15:22:53.803Z,62.66
2018-09-21T15:25:22.982Z,62.65
2018-09-21T15:27:51.451Z,62.35
2018-09-21T15:30:20.072Z,62.50
2018-09-21T15:32:48.934Z,62.08
2018-09-21T15:35:17.402Z,62.19
2018-09-21T15:37:45.953Z,62.18
2018-09-21T15:40:14.706Z,62.11
2018-09-21T15:42:43.584Z,62.11
2018-09-21T15:45:12.622Z,62.48
2018-09-21T15:47:41.206Z,62.81
2018-09-21T15:50:10.032Z,62.39
2018-09-21T15:52:38.686Z,63.03
2018-09-21T15:55:07.425Z,63.09
2018-09-21T15:57:35.993Z,63.22
2018-09-21T16:00:04.900Z,62.94
2018-09-21T16:02:33.831Z,63.38
2018-09-21T16:05:02.306Z,63.27
2018-09-21T16:07:30.841Z,63.48
2018-09-21T16:09:59.400Z,63.08
2018-09-21T16:12:27.901Z,63.28
2018-09-21T16:14:57.047Z,63.57
2018-09-21T16:17:26.222Z,63.73
2018-09-21T16:19:54.705Z,63.21
2018-09-21T16:22:23.276Z,63.73
2018-09-21T16:24:51.789Z,63.30
2018-09-21T16:27:20.269Z,63.03
2018-09-21T16:29:48.738Z,63.07
2018-09-21T16:32:17.247Z,63.15
2018-09-21T16:34:45.703Z,63.04
2018-09-21T16:37:14.218Z,62.77
2018-09-21T16:39:43.221Z,62.71
2018-09-21T16:42:11.657Z,62.86
2018-09-21T16:44:40.351Z,62.80
2018-09-21T16:47:08.982Z,62.32
2018-09-21T16:49:37.523Z,62.20
2018-09-21T16:52:06.052Z,62.43
2018-09-21T16:54:34.934Z,62.66
2018-09-21T16:57:03.397Z,62.04
2018-09-21T16:59:31.878Z,62.25
2018-09-21T17:02:00.705Z,61.98
2018-09-21T17:04:29.245Z,62.38
2018-09-21T17:06:57.734Z,62.75
2018-09-21T17:09:27.078Z,62.95
2018-09-21T17:11:55.569Z,63.09
2018-09-21T17:14:24.561Z,63.79
2018-09-21T17:16:53.415Z,63.87
2018-09-21T17:19:22.146Z,64.32
2018-09-21T17:21:50.938Z,64.20
2018-09-21T17:24:19.619Z,64.26
2018-09-21T17:26:48.278Z,64.79
2018-09-21T17:29:16.777Z,64.71
2018-09-21T17:31:46.188Z,65.25
2018-09-21T17:34:14.654Z,64.86
2018-09-21T17:36:43.115Z,64.85
2018-09-21T17:39:12.909Z,65.02
2018-09-21T17:41:41.793Z,65.65
2018-09-21T17:44:10.469Z,65.30
2018-09-21T17:46:39.266Z,65.54
2018-09-21T17:49:08.312Z,65.58
2018-09-21T17:51:36.961Z,65.78
2018-09-21T17:54:05.491Z,66.16
2018-09-21T17:56:34.097Z,66.33
2018-09-21T17:59:02.582Z,66.55
2018-09-21T18:01:31.193Z,66.64
2018-09-21T18:03:59.654Z,66.47
2018-09-21T18:06:28.184Z,66.87
2018-09-21T18:08:57.876Z,67.44
2018-09-21T18:11:27.049Z,67.36
2018-09-21T18:13:56.435Z,67.37
2018-09-21T18:16:25.078Z,67.48
2018-09-21T18:18:53.544Z,68.56
2018-09-21T18:21:22.029Z,68.49
2018-09-21T18:23:50.553Z,69.28
2018-09-21T18:26:19.034Z,70.14
2018-09-21T18:28:47.514Z,71.85
2018-09-21T18:31:16.081Z,73.34
2018-09-21T18:33:44.589Z,74.66
2018-09-21T18:36:13.071Z,79.24
2018-09-21T18:38:41.627Z,79.34
2018-09-21T18:41:10.167Z,79.21
2018-09-21T18:43:38.779Z,80.01
2018-09-21T18:46:07.645Z,80.28
2018-09-21T18:48:36.101Z,81.43
2018-09-21T18:51:05.011Z,81.70
2018-09-21T18:53:33.680Z,81.84
2018-09-21T18:56:02.152Z,82.32
2018-09-21T18:58:30.793Z,82.84
2018-09-21T19:00:59.525Z,82.92
2018-09-21T19:03:27.998Z,82.89
2018-09-21T19:05:57.022Z,83.61
2018-09-21T19:08:26.724Z,83.50
2018-09-21T19:10:55.193Z,83.29
2018-09-21T19:13:24.414Z,83.41
2018-09-21T19:15:53.079Z,83.26
2018-09-21T19:18:21.531Z,83.55
2018-09-21T19:20:50.019Z,83.43
2018-09-21T19:23:18.936Z,83.54
2018-09-21T19:25:47.411Z,83.31
2018-09-21T19:28:16.595Z,83.46
2018-09-21T19:30:45.486Z,83.71
2018-09-21T19:33:13.970Z,83.71
2018-09-21T19:35:42.780Z,83.83
2018-09-21T19:38:11.548Z,83.99
2018-09-21T19:40:40.088Z,83.82
2018-09-21T19:43:08.671Z,83.87
2018-09-21T19:45:37.410Z,83.95
2018-09-21T19:48:06.093Z,83.83
2018-09-21T19:50:34.562Z,84.02
2018-09-21T19:53:04.547Z,83.61
2018-09-21T19:55:33.087Z,83.62
2018-09-21T19:58:01.597Z,83.61
2018-09-21T20:00:31.041Z,83.48
2018-09-21T20:02:59.744Z,83.10
2018-09-21T20:05:28.272Z,83.06
2018-09-21T20:07:58.328Z,82.73
2018-09-21T20:10:27.081Z,82.10
2018-09-21T20:12:55.601Z,82.29
2018-09-21T20:15:24.614Z,82.32
2018-09-21T20:17:53.105Z,82.38
2018-09-21T20:20:21.745Z,82.65
2018-09-21T20:22:50.745Z,82.47
2018-09-21T20:25:19.270Z,83.19
2018-09-21T20:27:47.721Z,83.41
2018-09-21T20:30:21.406Z,83.33
2018-09-21T20:32:55.340Z,83.59
2018-09-21T20:35:24.862Z,83.64
2018-09-21T20:37:53.669Z,83.81
2018-09-21T20:40:22.378Z,83.41
2018-09-21T20:42:50.909Z,83.28
2018-09-21T20:45:19.397Z,83.43
2018-09-21T20:47:47.921Z,83.39
2018-09-21T20:50:16.656Z,83.48
2018-09-21T20:52:45.119Z,83.37
2018-09-21T20:55:14.022Z,83.50
2018-09-21T20:57:42.794Z,83.43
2018-09-21T21:00:11.345Z,83.58
2018-09-21T21:02:40.032Z,83.74
2018-09-21T21:05:09.201Z,83.51
2018-09-21T21:07:37.654Z,83.32
2018-09-21T21:10:06.372Z,83.53
2018-09-21T21:12:35.213Z,83.52
2018-09-21T21:15:03.753Z,83.52
2018-09-21T21:17:32.714Z,83.62
2018-09-21T21:20:01.582Z,83.00
2018-09-21T21:22:30.062Z,83.57
2018-09-21T21:24:58.882Z,83.50
2018-09-21T21:27:27.925Z,83.27
2018-09-21T21:29:56.978Z,83.54
2018-09-21T21:32:26.071Z,83.94
2018-09-21T21:34:54.844Z,83.43
2018-09-21T21:37:23.307Z,83.57
2018-09-21T21:39:51.896Z,83.84
2018-09-21T21:42:20.685Z,83.94
2018-09-21T21:44:50.162Z,83.65
2018-09-21T21:47:18.680Z,83.62
2018-09-21T21:49:47.259Z,83.92
2018-09-21T21:52:15.765Z,84.16
2018-09-21T21:54:44.329Z,83.98
2018-09-21T21:57:13.253Z,84.01
2018-09-21T21:59:42.044Z,84.25
2018-09-21T22:02:14.075Z,83.67
2018-09-21T22:04:43.109Z,83.88
2018-09-21T22:07:12.770Z,83.59
2018-09-21T22:09:41.292Z,83.54
2018-09-21T22:12:14.953Z,83.47
2018-09-21T22:14:43.626Z,83.62
2018-09-21T22:17:12.139Z,83.83
2018-09-21T22:19:40.797Z,83.72
2018-09-21T22:22:09.452Z,83.53
2018-09-21T22:24:37.954Z,83.50
2018-09-21T22:27:06.451Z,83.50
2018-09-21T22:29:35.013Z,83.56
2018-09-21T22:32:03.529Z,83.18
2018-09-21T22:34:32.026Z,83.03
2018-09-21T22:37:01.192Z,83.34
2018-09-21T22:39:29.705Z,83.19
2018-09-21T22:41:58.229Z,82.72
2018-09-21T22:44:28.151Z,83.17
2018-09-21T22:46:56.640Z,83.14
2018-09-21T22:49:25.881Z,82.82
2018-09-21T22:51:54.887Z,83.26
2018-09-21T22:54:23.344Z,83.35
2018-09-21T22:56:51.840Z,82.97
2018-09-21T22:59:21.137Z,82.97
2018-09-21T23:01:49.645Z,82.74
2018-09-21T23:04:18.131Z,82.73
2018-09-21T23:06:47.266Z,82.56
2018-09-21T23:09:15.717Z,82.41
2018-09-21T23:11:44.254Z,82.30
2018-09-21T23:14:13.039Z,82.10
2018-09-21T23:16:41.528Z,82.50
2018-09-21T23:19:10.560Z,81.95
2018-09-21T23:21:39.441Z,82.00
2018-09-21T23:24:07.890Z,81.88
2018-09-21T23:26:36.767Z,82.00
2018-09-21T23:29:05.394Z,82.24
2018-09-21T23:31:33.960Z,81.91
2018-09-21T23:34:02.489Z,81.61
2018-09-21T23:36:31.056Z,81.51
2018-09-21T23:38:59.565Z,81.47
2018-09-21T23:41:28.042Z,81.43
2018-09-21T23:43:56.597Z,81.14
2018-09-21T23:46:25.645Z,81.71
2018-09-21T23:48:54.336Z,81.47
2018-09-21T23:51:23.255Z,81.73
2018-09-21T23:53:51.795Z,81.51
2018-09-21T23:56:20.313Z,81.56
2018-09-21T23:58:49.397Z,81.20
